INFORMACIÓN METAR y TAF

METAR FOR SAVC
ADDS - METARS form results

(1425 UTC 04 July 2020)
Data provider http://aviationweather.gov/metar/data/
 
METAR text: SAVC 041415Z 23006KT 160V260 5000 -RADZ FEW008 SCT015 OVC035 05/01 Q1014
Conditions at: SAVC (COMODORO RIVADAV, AR) observed 1415 UTC 04 July 2020
Temperature: 5.0°C (41°F)
Dewpoint: 1.0°C (34°F) [RH = 75%]
Pressure (altimeter): 29.94 inches Hg (1014.0 mb)
Winds: from the SW (230 degrees) at 7 MPH (6 knots; 3.1 m/s)
Visibility: 3 miles ( 5 km)
Ceiling: 3500 feet AGL
Clouds: few clouds at 800 feet AGL
scattered clouds at 1500 feet AGL
overcast cloud deck at 3500 feet AGL
Weather: -RA -DZ  (light rain, light drizzle)

METAR text: SAVC 041400Z 23007KT 150V270 9999 -RA FEW008 SCT015 OVC035 05/01 Q1014
Conditions at: SAVC (COMODORO RIVADAV, AR) observed 1400 UTC 04 July 2020
Temperature: 5.0°C (41°F)
Dewpoint: 1.0°C (34°F) [RH = 75%]
Pressure (altimeter): 29.94 inches Hg (1014.0 mb)
Winds: from the SW (230 degrees) at 8 MPH (7 knots; 3.6 m/s)
Visibility: 6 or more miles (10+ km)
Ceiling: 3500 feet AGL
Clouds: few clouds at 800 feet AGL
scattered clouds at 1500 feet AGL
overcast cloud deck at 3500 feet AGL
Weather: -RA  (light rain)

METAR text: SAVC 041340Z 23008KT 180V270 3000 RA FEW008 SCT012 OVC035 04/03 Q1014
Conditions at: SAVC (COMODORO RIVADAV, AR) observed 1340 UTC 04 July 2020
Temperature: 4.0°C (39°F)
Dewpoint: 3.0°C (37°F) [RH = 93%]
Pressure (altimeter): 29.94 inches Hg (1014.0 mb)
Winds: from the SW (230 degrees) at 9 MPH (8 knots; 4.1 m/s)
Visibility: 1.86 miles (2.99 km)
Ceiling: 3500 feet AGL
Clouds: few clouds at 800 feet AGL
scattered clouds at 1200 feet AGL
overcast cloud deck at 3500 feet AGL
Weather: RA  (moderate rain)

Forecast for: SAVC (COMODORO RIVADAV, AR)
Text: TAF SAVC 041100Z 0412/0512 23012KT 7000 -DZRA FEW010 SCT015 OVC040 TX07/0418Z TN02/0511Z
Forecast period: 1200 to 1800 UTC 04 July 2020
Forecast type: FROM: standard forecast or significant change
Winds: from the SW (230 degrees) at 14 MPH (12 knots; 6.2 m/s)
Visibility: 4 miles (7 km)
Ceiling: 4000 feet AGL
Clouds: few clouds at 1000 feet AGL
scattered clouds at 1500 feet AGL
overcast cloud deck at 4000 feet AGL
Weather: -DZ -RA  (light drizzle, light rain)
Text: BECMG 0418/0420 22020KT 9999 NSW SCT012 BKN025
Forecast period: 1800 UTC 04 July 2020 to 0300 UTC 05 July 2020
Forecast type: BECOMING: Conditions expected to become as follows by 2000 UTC 04 July 2020
Winds: from the SW (220 degrees) at 23 MPH (20 knots; 10.3 m/s)
Visibility: 6 or more miles 10+ km)
Ceiling: 2500 feet AGL
Clouds: scattered clouds at 1200 feet AGL
broken clouds at 2500 feet AGL
Weather: NSW  (no significant weather)
Text: BECMG 0503/0505 22010KT 7000 -DZRA BKN020 OVC030
Forecast period: 0300 to 1200 UTC 05 July 2020
Forecast type: BECOMING: Conditions expected to become as follows by 0500 UTC 05 July 2020
Winds: from the SW (220 degrees) at 12 MPH (10 knots; 5.1 m/s)
Visibility: 4 miles (7 km)
Ceiling: 2000 feet AGL
Clouds: broken clouds at 2000 feet AGL
overcast cloud deck at 3000 feet AGL
Weather: -DZ -RA  (light drizzle, light rain)
Text: PROB
Forecast period: 0600 to 1200 UTC 05 July 2020
Forecast type: TEMPORARY: The following changes expected for less than half the time period
Visibility: 3 miles (5 km)
Ceiling: 1000 feet AGL
Clouds: few clouds at 800 feet AGL
broken clouds at 1000 feet AGL
Weather: SN  (moderate snow)

 MAPA DE AEROPUERTO

 INFORMACIÓN DE PISTA
Pista 7 Longitud 9219 ft Ancho 164 ft
Elevación 189 ft Umbral desplazado 0 ft Rumbo de pista 79
Pista 25 Longitud 9219 ft Ancho 164 ft
Elevación 105 ft Umbral desplazado 0 ft Rumbo de pista 259

 FRECUENCIAS DEL AEROPUERTO
Tipo ARR Nombre COMODORO C Frecuencia 124.3 MHZ
Tipo TWR Nombre COMODORO T Frecuencia 119.9 MHZ

 RADIO AYUDAS DEL AEROPUERTO
Tipo NDB Nombre Comodoro Rivadavia Frecuencia 280 KHZ
Tipo VOR-DME Nombre Comodoro Rivadavia Frecuencia 117500 KHZ
Tipo NDB Nombre Comodoro Rivadavia Frecuencia 260 KHZ



©2020 LAPA Virtual - Todos los derechos reservados.

VAM [v2.6.2] - Powered & Development by AccessPoint LLC